sensor_id;sensor_type;location;lat;lon;timestamp;temperature;humidity
57030;DHT22;42920;45.306;20.448;2023-02-21T00:02:37;256.30;2252.80
57030;DHT22;42920;45.306;20.448;2023-02-21T00:05:21;256.30;2252.80
57030;DHT22;42920;45.306;20.448;2023-02-21T00:08:05;256.30;2252.80
57030;DHT22;42920;45.306;20.448;2023-02-21T00:10:49;256.30;2252.80
57030;DHT22;42920;45.306;20.448;2023-02-21T00:13:37;256.30;2252.80
57030;DHT22;42920;45.306;20.448;2023-02-21T00:16:21;256.40;2252.80
57030;DHT22;42920;45.306;20.448;2023-02-21T00:19:06;256.30;2252.80
57030;DHT22;42920;45.306;20.448;2023-02-21T00:21:50;256.40;2252.80
57030;DHT22;42920;45.306;20.448;2023-02-21T00:24:34;256.30;2252.80
57030;DHT22;42920;45.306;20.448;2023-02-21T00:27:18;256.30;2252.80
57030;DHT22;42920;45.306;20.448;2023-02-21T00:30:03;256.30;2252.80
57030;DHT22;42920;45.306;20.448;2023-02-21T00:32:47;256.20;2252.80
57030;DHT22;42920;45.306;20.448;2023-02-21T00:35:31;256.40;2252.80
57030;DHT22;42920;45.306;20.448;2023-02-21T00:38:15;256.30;2252.80
57030;DHT22;42920;45.306;20.448;2023-02-21T00:41:00;256.10;2252.80
57030;DHT22;42920;45.306;20.448;2023-02-21T00:43:44;256.10;2252.80
57030;DHT22;42920;45.306;20.448;2023-02-21T00:46:28;256.10;2252.80
57030;DHT22;42920;45.306;20.448;2023-02-21T00:49:12;256.10;2252.80
57030;DHT22;42920;45.306;20.448;2023-02-21T00:51:57;256.20;2252.80
57030;DHT22;42920;45.306;20.448;2023-02-21T00:54:41;256.10;2252.80
57030;DHT22;42920;45.306;20.448;2023-02-21T00:57:25;256.00;2252.80
57030;DHT22;42920;45.306;20.448;2023-02-21T01:00:14;231.30;2252.80
57030;DHT22;42920;45.306;20.448;2023-02-21T01:02:58;231.20;2252.80
57030;DHT22;42920;45.306;20.448;2023-02-21T01:05:42;231.10;2252.80
57030;DHT22;42920;45.306;20.448;2023-02-21T01:08:26;231.20;2252.80
57030;DHT22;42920;45.306;20.448;2023-02-21T01:11:17;231.20;2252.80
57030;DHT22;42920;45.306;20.448;2023-02-21T01:14:01;231.20;2252.80
57030;DHT22;42920;45.306;20.448;2023-02-21T01:16:45;231.10;2252.80
57030;DHT22;42920;45.306;20.448;2023-02-21T01:19:30;231.00;2252.80
57030;DHT22;42920;45.306;20.448;2023-02-21T01:22:14;230.60;2252.80
57030;DHT22;42920;45.306;20.448;2023-02-21T01:24:58;230.50;2252.80
57030;DHT22;42920;45.306;20.448;2023-02-21T01:27:42;205.70;2252.80
57030;DHT22;42920;45.306;20.448;2023-02-21T01:30:26;205.40;2252.80
57030;DHT22;42920;45.306;20.448;2023-02-21T01:33:11;205.20;2252.80
57030;DHT22;42920;45.306;20.448;2023-02-21T01:35:55;205.50;2252.80
57030;DHT22;42920;45.306;20.448;2023-02-21T01:38:39;205.60;2252.80
57030;DHT22;42920;45.306;20.448;2023-02-21T01:41:23;205.70;2252.80
57030;DHT22;42920;45.306;20.448;2023-02-21T01:44:28;230.40;2252.80
57030;DHT22;42920;45.306;20.448;2023-02-21T01:47:13;230.40;2252.80
57030;DHT22;42920;45.306;20.448;2023-02-21T01:49:58;230.40;2252.80
57030;DHT22;42920;45.306;20.448;2023-02-21T01:52:43;205.60;2252.80
57030;DHT22;42920;45.306;20.448;2023-02-21T01:55:27;205.30;2252.80
57030;DHT22;42920;45.306;20.448;2023-02-21T01:58:12;205.10;2252.80
57030;DHT22;42920;45.306;20.448;2023-02-21T02:00:56;205.00;2252.80
57030;DHT22;42920;45.306;20.448;2023-02-21T02:03:40;204.90;2252.80
57030;DHT22;42920;45.306;20.448;2023-02-21T02:06:24;204.90;2252.80
57030;DHT22;42920;45.306;20.448;2023-02-21T02:09:16;204.90;2252.80
57030;DHT22;42920;45.306;20.448;2023-02-21T02:14:50;205.10;2252.80
57030;DHT22;42920;45.306;20.448;2023-02-21T02:31:05;205.10;2252.80
57030;DHT22;42920;45.306;20.448;2023-02-21T02:36:05;204.90;2252.80
57030;DHT22;42920;45.306;20.448;2023-02-21T02:43:31;204.90;2252.80
57030;DHT22;42920;45.306;20.448;2023-02-21T02:46:09;204.90;2252.80
57030;DHT22;42920;45.306;20.448;2023-02-21T02:48:36;204.90;2252.80
57030;DHT22;42920;45.306;20.448;2023-02-21T02:51:04;205.00;2252.80
57030;DHT22;42920;45.306;20.448;2023-02-21T02:53:31;205.10;2252.80
57030;DHT22;42920;45.306;20.448;2023-02-21T02:55:58;205.10;2252.80
57030;DHT22;42920;45.306;20.448;2023-02-21T02:58:26;205.10;2252.80
57030;DHT22;42920;45.306;20.448;2023-02-21T03:03:45;205.10;2252.80
57030;DHT22;42920;45.306;20.448;2023-02-21T03:11:12;205.20;2252.80
57030;DHT22;42920;45.306;20.448;2023-02-21T03:13:42;205.20;2252.80
57030;DHT22;42920;45.306;20.448;2023-02-21T03:21:01;205.20;2252.80
57030;DHT22;42920;45.306;20.448;2023-02-21T03:23:29;205.20;2252.80
57030;DHT22;42920;45.306;20.448;2023-02-21T03:25:55;205.20;2252.80
57030;DHT22;42920;45.306;20.448;2023-02-21T03:28:22;205.10;2252.80
57030;DHT22;42920;45.306;20.448;2023-02-21T03:30:50;205.10;2252.80
57030;DHT22;42920;45.306;20.448;2023-02-21T03:33:17;205.10;2252.80
57030;DHT22;42920;45.306;20.448;2023-02-21T03:35:43;205.00;2252.80
57030;DHT22;42920;45.306;20.448;2023-02-21T03:38:09;205.00;2252.80
57030;DHT22;42920;45.306;20.448;2023-02-21T03:40:34;204.90;2252.80
57030;DHT22;42920;45.306;20.448;2023-02-21T03:43:03;204.90;2252.80
57030;DHT22;42920;45.306;20.448;2023-02-21T03:45:31;204.90;2252.80
57030;DHT22;42920;45.306;20.448;2023-02-21T03:47:57;205.00;2252.80
57030;DHT22;42920;45.306;20.448;2023-02-21T03:50:22;205.10;2252.80
57030;DHT22;42920;45.306;20.448;2023-02-21T03:52:48;205.10;2252.80
57030;DHT22;42920;45.306;20.448;2023-02-21T03:55:13;205.10;2252.80
57030;DHT22;42920;45.306;20.448;2023-02-21T03:57:39;205.10;2252.80
57030;DHT22;42920;45.306;20.448;2023-02-21T04:00:05;204.90;2252.80
57030;DHT22;42920;45.306;20.448;2023-02-21T04:02:31;204.80;2252.80
57030;DHT22;42920;45.306;20.448;2023-02-21T04:04:56;180.10;2252.80
57030;DHT22;42920;45.306;20.448;2023-02-21T04:07:22;179.70;2252.80
57030;DHT22;42920;45.306;20.448;2023-02-21T04:09:47;179.30;2252.80
57030;DHT22;42920;45.306;20.448;2023-02-21T04:12:13;154.20;2252.80
57030;DHT22;42920;45.306;20.448;2023-02-21T04:14:39;154.00;2252.80
57030;DHT22;42920;45.306;20.448;2023-02-21T04:17:05;153.90;2252.80
57030;DHT22;42920;45.306;20.448;2023-02-21T04:19:31;153.80;2252.80
57030;DHT22;42920;45.306;20.448;2023-02-21T04:21:56;153.70;2252.80
57030;DHT22;42920;45.306;20.448;2023-02-21T04:24:22;153.60;2252.80
57030;DHT22;42920;45.306;20.448;2023-02-21T04:26:47;153.70;2252.80
57030;DHT22;42920;45.306;20.448;2023-02-21T04:29:13;154.00;2252.80
57030;DHT22;42920;45.306;20.448;2023-02-21T04:31:39;154.10;2252.80
57030;DHT22;42920;45.306;20.448;2023-02-21T04:34:04;154.40;2252.80
57030;DHT22;42920;45.306;20.448;2023-02-21T04:36:30;179.30;2252.80
57030;DHT22;42920;45.306;20.448;2023-02-21T04:38:56;179.40;2252.80
57030;DHT22;42920;45.306;20.448;2023-02-21T04:41:21;179.70;2252.80
57030;DHT22;42920;45.306;20.448;2023-02-21T04:43:47;179.90;2252.80
57030;DHT22;42920;45.306;20.448;2023-02-21T04:46:13;180.10;2252.80
57030;DHT22;42920;45.306;20.448;2023-02-21T04:48:50;180.10;2252.80
57030;DHT22;42920;45.306;20.448;2023-02-21T04:51:17;204.80;2252.80
57030;DHT22;42920;45.306;20.448;2023-02-21T04:53:45;205.00;2252.80
57030;DHT22;42920;45.306;20.448;2023-02-21T04:56:11;205.20;2252.80
57030;DHT22;42920;45.306;20.448;2023-02-21T04:58:37;205.40;2252.80
57030;DHT22;42920;45.306;20.448;2023-02-21T05:01:02;205.50;2252.80
57030;DHT22;42920;45.306;20.448;2023-02-21T05:03:28;205.40;2252.80
57030;DHT22;42920;45.306;20.448;2023-02-21T05:05:53;205.40;2252.80
57030;DHT22;42920;45.306;20.448;2023-02-21T05:08:19;205.50;2252.80
57030;DHT22;42920;45.306;20.448;2023-02-21T05:10:45;205.50;2252.80
57030;DHT22;42920;45.306;20.448;2023-02-21T05:13:11;205.60;2252.80
57030;DHT22;42920;45.306;20.448;2023-02-21T05:15:36;205.70;2252.80
57030;DHT22;42920;45.306;20.448;2023-02-21T05:18:02;205.70;2252.80
57030;DHT22;42920;45.306;20.448;2023-02-21T05:20:27;205.70;2252.80
57030;DHT22;42920;45.306;20.448;2023-02-21T05:22:53;205.60;2252.80
57030;DHT22;42920;45.306;20.448;2023-02-21T05:25:20;205.60;2252.80
57030;DHT22;42920;45.306;20.448;2023-02-21T05:27:45;205.50;2252.80
57030;DHT22;42920;45.306;20.448;2023-02-21T05:30:12;205.30;2252.80
57030;DHT22;42920;45.306;20.448;2023-02-21T05:32:38;205.40;2252.80
57030;DHT22;42920;45.306;20.448;2023-02-21T05:35:04;205.40;2252.80
57030;DHT22;42920;45.306;20.448;2023-02-21T05:37:29;205.30;2252.80
57030;DHT22;42920;45.306;20.448;2023-02-21T05:39:55;205.20;2252.80
57030;DHT22;42920;45.306;20.448;2023-02-21T05:42:21;205.20;2252.80
57030;DHT22;42920;45.306;20.448;2023-02-21T05:44:46;205.30;2252.80
57030;DHT22;42920;45.306;20.448;2023-02-21T05:47:12;205.40;2252.80
57030;DHT22;42920;45.306;20.448;2023-02-21T05:49:38;205.30;2252.80
57030;DHT22;42920;45.306;20.448;2023-02-21T05:52:04;205.30;2252.80
57030;DHT22;42920;45.306;20.448;2023-02-21T05:54:30;205.30;2252.80
57030;DHT22;42920;45.306;20.448;2023-02-21T05:56:56;205.30;2252.80
57030;DHT22;42920;45.306;20.448;2023-02-21T05:59:21;205.30;2252.80
57030;DHT22;42920;45.306;20.448;2023-02-21T06:01:47;205.30;2252.80
57030;DHT22;42920;45.306;20.448;2023-02-21T06:04:13;205.40;2252.80
57030;DHT22;42920;45.306;20.448;2023-02-21T06:06:39;205.40;2252.80
57030;DHT22;42920;45.306;20.448;2023-02-21T06:09:05;205.50;2252.80
57030;DHT22;42920;45.306;20.448;2023-02-21T06:11:31;205.20;2252.80
57030;DHT22;42920;45.306;20.448;2023-02-21T06:14:02;205.60;2252.80
57030;DHT22;42920;45.306;20.448;2023-02-21T06:16:31;205.70;2252.80
57030;DHT22;42920;45.306;20.448;2023-02-21T06:18:56;230.40;2252.80
57030;DHT22;42920;45.306;20.448;2023-02-21T06:21:22;230.50;2252.80
57030;DHT22;42920;45.306;20.448;2023-02-21T06:23:47;230.60;2252.80
57030;DHT22;42920;45.306;20.448;2023-02-21T06:26:13;230.70;2252.80
57030;DHT22;42920;45.306;20.448;2023-02-21T06:28:39;230.80;2252.80
57030;DHT22;42920;45.306;20.448;2023-02-21T06:31:05;230.90;2252.80
57030;DHT22;42920;45.306;20.448;2023-02-21T06:33:30;230.90;2252.80
57030;DHT22;42920;45.306;20.448;2023-02-21T06:35:56;230.90;2252.80
57030;DHT22;42920;45.306;20.448;2023-02-21T06:38:22;230.90;2252.80
57030;DHT22;42920;45.306;20.448;2023-02-21T06:40:47;230.90;2252.80
57030;DHT22;42920;45.306;20.448;2023-02-21T06:43:13;231.00;2252.80
57030;DHT22;42920;45.306;20.448;2023-02-21T06:45:38;231.00;2252.80
57030;DHT22;42920;45.306;20.448;2023-02-21T06:48:04;231.10;2252.80
57030;DHT22;42920;45.306;20.448;2023-02-21T06:50:30;231.10;2252.80
57030;DHT22;42920;45.306;20.448;2023-02-21T06:52:55;231.20;2252.80
57030;DHT22;42920;45.306;20.448;2023-02-21T06:55:21;231.20;2252.80
57030;DHT22;42920;45.306;20.448;2023-02-21T06:57:47;231.30;2252.80
57030;DHT22;42920;45.306;20.448;2023-02-21T07:00:13;231.30;2252.80
57030;DHT22;42920;45.306;20.448;2023-02-21T07:02:38;256.00;2252.80
57030;DHT22;42920;45.306;20.448;2023-02-21T07:05:04;256.20;2252.80
57030;DHT22;42920;45.306;20.448;2023-02-21T07:07:30;256.20;2252.80
57030;DHT22;42920;45.306;20.448;2023-02-21T07:09:55;256.20;2252.80
57030;DHT22;42920;45.306;20.448;2023-02-21T07:12:21;256.40;2252.80
57030;DHT22;42920;45.306;20.448;2023-02-21T07:14:47;256.50;2252.80
57030;DHT22;42920;45.306;20.448;2023-02-21T07:17:12;256.60;2252.80
57030;DHT22;42920;45.306;20.448;2023-02-21T07:19:38;256.70;2252.80
57030;DHT22;42920;45.306;20.448;2023-02-21T07:22:04;256.90;2252.80
57030;DHT22;42920;45.306;20.448;2023-02-21T07:24:30;281.60;2278.40
57030;DHT22;42920;45.306;20.448;2023-02-21T07:26:55;281.70;2278.40
57030;DHT22;42920;45.306;20.448;2023-02-21T07:29:21;281.80;2278.40
57030;DHT22;42920;45.306;20.448;2023-02-21T07:31:47;281.90;2278.40
57030;DHT22;42920;45.306;20.448;2023-02-21T07:34:12;282.00;2278.40
57030;DHT22;42920;45.306;20.448;2023-02-21T07:36:39;282.20;2278.40
57030;DHT22;42920;45.306;20.448;2023-02-21T07:39:05;282.30;2278.40
57030;DHT22;42920;45.306;20.448;2023-02-21T07:41:30;282.40;2278.40
57030;DHT22;42920;45.306;20.448;2023-02-21T07:43:56;282.50;2278.40
57030;DHT22;42920;45.306;20.448;2023-02-21T07:46:24;307.30;2304.00
57030;DHT22;42920;45.306;20.448;2023-02-21T07:48:50;307.30;2304.00
57030;DHT22;42920;45.306;20.448;2023-02-21T07:51:15;307.30;2304.00
57030;DHT22;42920;45.306;20.448;2023-02-21T07:53:41;307.50;2304.00
57030;DHT22;42920;45.306;20.448;2023-02-21T07:56:06;307.60;2304.00
57030;DHT22;42920;45.306;20.448;2023-02-21T07:58:32;307.70;2304.00
57030;DHT22;42920;45.306;20.448;2023-02-21T08:01:02;307.80;2304.00
57030;DHT22;42920;45.306;20.448;2023-02-21T08:03:28;308.00;2304.00
57030;DHT22;42920;45.306;20.448;2023-02-21T08:05:54;308.10;2304.00
57030;DHT22;42920;45.306;20.448;2023-02-21T08:08:20;308.10;2304.00
57030;DHT22;42920;45.306;20.448;2023-02-21T08:10:47;308.10;2304.00
57030;DHT22;42920;45.306;20.448;2023-02-21T08:13:12;308.10;2304.00
57030;DHT22;42920;45.306;20.448;2023-02-21T08:15:38;332.80;2329.60
57030;DHT22;42920;45.306;20.448;2023-02-21T08:18:03;332.90;2329.60
57030;DHT22;42920;45.306;20.448;2023-02-21T08:20:29;332.90;2329.60
57030;DHT22;42920;45.306;20.448;2023-02-21T08:22:55;332.90;2329.60
57030;DHT22;42920;45.306;20.448;2023-02-21T08:25:20;333.00;2329.60
57030;DHT22;42920;45.306;20.448;2023-02-21T08:27:46;333.10;2329.60
57030;DHT22;42920;45.306;20.448;2023-02-21T08:30:17;333.10;2329.60
57030;DHT22;42920;45.306;20.448;2023-02-21T08:32:43;333.20;2329.60
57030;DHT22;42920;45.306;20.448;2023-02-21T08:35:15;333.20;2329.60
57030;DHT22;42920;45.306;20.448;2023-02-21T08:37:48;333.20;2329.60
57030;DHT22;42920;45.306;20.448;2023-02-21T08:40:17;333.20;2329.60
57030;DHT22;42920;45.306;20.448;2023-02-21T08:42:43;333.30;2329.60
57030;DHT22;42920;45.306;20.448;2023-02-21T08:45:14;333.40;2329.60
57030;DHT22;42920;45.306;20.448;2023-02-21T08:47:40;333.40;2329.60
57030;DHT22;42920;45.306;20.448;2023-02-21T08:50:05;333.40;2329.60
57030;DHT22;42920;45.306;20.448;2023-02-21T08:52:31;333.50;2329.60
57030;DHT22;42920;45.306;20.448;2023-02-21T08:54:56;333.60;2329.60
57030;DHT22;42920;45.306;20.448;2023-02-21T08:57:22;333.70;2329.60
57030;DHT22;42920;45.306;20.448;2023-02-21T08:59:48;333.70;2329.60
57030;DHT22;42920;45.306;20.448;2023-02-21T09:02:15;358.40;2329.60
57030;DHT22;42920;45.306;20.448;2023-02-21T09:04:41;358.40;2329.60
57030;DHT22;42920;45.306;20.448;2023-02-21T09:07:06;358.50;2329.60
57030;DHT22;42920;45.306;20.448;2023-02-21T09:09:32;358.50;2329.60
57030;DHT22;42920;45.306;20.448;2023-02-21T09:11:57;358.60;2329.60
57030;DHT22;42920;45.306;20.448;2023-02-21T09:14:23;358.60;2304.00
57030;DHT22;42920;45.306;20.448;2023-02-21T09:16:49;358.70;2278.40
57030;DHT22;42920;45.306;20.448;2023-02-21T09:19:14;358.80;2278.40
57030;DHT22;42920;45.306;20.448;2023-02-21T09:21:44;358.90;2227.20
57030;DHT22;42920;45.306;20.448;2023-02-21T09:24:10;359.00;2176.00
57030;DHT22;42920;45.306;20.448;2023-02-21T09:26:35;359.10;2150.40
57030;DHT22;42920;45.306;20.448;2023-02-21T09:29:01;359.20;2150.40
57030;DHT22;42920;45.306;20.448;2023-02-21T09:31:26;384.00;2124.80
57030;DHT22;42920;45.306;20.448;2023-02-21T09:33:52;384.20;2124.80
57030;DHT22;42920;45.306;20.448;2023-02-21T09:36:17;384.40;2124.80
57030;DHT22;42920;45.306;20.448;2023-02-21T09:38:51;384.70;2124.80
57030;DHT22;42920;45.306;20.448;2023-02-21T09:41:16;384.90;2073.60
57030;DHT22;42920;45.306;20.448;2023-02-21T09:43:47;409.70;2048.00
57030;DHT22;42920;45.306;20.448;2023-02-21T09:46:14;409.90;1971.20
57030;DHT22;42920;45.306;20.448;2023-02-21T09:48:40;410.00;1945.60
57030;DHT22;42920;45.306;20.448;2023-02-21T09:51:07;410.10;1945.60
57030;DHT22;42920;45.306;20.448;2023-02-21T09:53:36;410.20;1868.80
57030;DHT22;42920;45.306;20.448;2023-02-21T09:56:04;410.30;1843.20
57030;DHT22;42920;45.306;20.448;2023-02-21T09:58:31;410.40;1843.20
57030;DHT22;42920;45.306;20.448;2023-02-21T10:00:57;435.20;1843.20
57030;DHT22;42920;45.306;20.448;2023-02-21T10:06:23;435.50;1766.40
57030;DHT22;42920;45.306;20.448;2023-02-21T10:14:03;436.10;1664.00
57030;DHT22;42920;45.306;20.448;2023-02-21T10:21:48;461.00;1638.40
57030;DHT22;42920;45.306;20.448;2023-02-21T10:24:16;461.10;1612.80
57030;DHT22;42920;45.306;20.448;2023-02-21T10:26:45;461.20;1612.80
57030;DHT22;42920;45.306;20.448;2023-02-21T10:29:55;461.40;1612.80
57030;DHT22;42920;45.306;20.448;2023-02-21T10:32:01;461.60;1587.20
57030;DHT22;42920;45.306;20.448;2023-02-21T10:34:29;461.50;1587.20
57030;DHT22;42920;45.306;20.448;2023-02-21T10:36:55;461.20;1587.20
57030;DHT22;42920;45.306;20.448;2023-02-21T10:39:21;461.30;1587.20
57030;DHT22;42920;45.306;20.448;2023-02-21T10:41:49;461.60;1536.00
57030;DHT22;42920;45.306;20.448;2023-02-21T10:44:17;486.50;1536.00
57030;DHT22;42920;45.306;20.448;2023-02-21T10:46:46;486.80;1510.40
57030;DHT22;42920;45.306;20.448;2023-02-21T10:49:24;487.00;1459.20
57030;DHT22;42920;45.306;20.448;2023-02-21T10:52:03;487.00;1484.80
57030;DHT22;42920;45.306;20.448;2023-02-21T10:54:30;487.20;1433.60
57030;DHT22;42920;45.306;20.448;2023-02-21T10:56:56;512.00;1408.00
57030;DHT22;42920;45.306;20.448;2023-02-21T10:59:25;512.20;1356.80
57030;DHT22;42920;45.306;20.448;2023-02-21T11:01:51;512.40;1356.80
57030;DHT22;42920;45.306;20.448;2023-02-21T11:06:50;512.90;1305.60
57030;DHT22;42920;45.306;20.448;2023-02-21T11:14:40;538.10;1331.20
57030;DHT22;42920;45.306;20.448;2023-02-21T11:19:54;538.30;1254.40
57030;DHT22;42920;45.306;20.448;2023-02-21T11:22:23;538.50;1254.40
57030;DHT22;42920;45.306;20.448;2023-02-21T11:24:52;563.30;1254.40
57030;DHT22;42920;45.306;20.448;2023-02-21T11:27:19;563.40;1254.40
57030;DHT22;42920;45.306;20.448;2023-02-21T11:29:46;563.40;1228.80
57030;DHT22;42920;45.306;20.448;2023-02-21T11:32:18;563.40;1254.40
57030;DHT22;42920;45.306;20.448;2023-02-21T11:34:45;563.20;1254.40
57030;DHT22;42920;45.306;20.448;2023-02-21T11:37:13;538.00;1228.80
57030;DHT22;42920;45.306;20.448;2023-02-21T11:39:39;538.00;1254.40
57030;DHT22;42920;45.306;20.448;2023-02-21T11:44:50;538.50;1254.40
57030;DHT22;42920;45.306;20.448;2023-02-21T11:47:27;563.60;1254.40
57030;DHT22;42920;45.306;20.448;2023-02-21T11:50:06;563.60;1254.40
57030;DHT22;42920;45.306;20.448;2023-02-21T11:55:23;563.70;1254.40
57030;DHT22;42920;45.306;20.448;2023-02-21T12:02:52;563.90;1203.20
57030;DHT22;42920;45.306;20.448;2023-02-21T12:08:25;563.90;1203.20
57030;DHT22;42920;45.306;20.448;2023-02-21T12:21:29;563.60;1177.60
57030;DHT22;42920;45.306;20.448;2023-02-21T12:39:48;538.30;1203.20
57030;DHT22;42920;45.306;20.448;2023-02-21T12:45:00;512.70;1228.80
57030;DHT22;42920;45.306;20.448;2023-02-21T12:50:24;512.30;1254.40
57030;DHT22;42920;45.306;20.448;2023-02-21T12:55:23;487.20;1305.60
57030;DHT22;42920;45.306;20.448;2023-02-21T12:57:55;487.20;1305.60
57030;DHT22;42920;45.306;20.448;2023-02-21T13:00:29;512.00;1280.00
57030;DHT22;42920;45.306;20.448;2023-02-21T13:05:40;512.60;1280.00
57030;DHT22;42920;45.306;20.448;2023-02-21T13:10:38;512.90;1254.40
57030;DHT22;42920;45.306;20.448;2023-02-21T13:13:14;537.60;1254.40
57030;DHT22;42920;45.306;20.448;2023-02-21T13:15:42;537.80;1280.00
57030;DHT22;42920;45.306;20.448;2023-02-21T13:18:14;537.80;1254.40
57030;DHT22;42920;45.306;20.448;2023-02-21T13:20:45;537.70;1254.40
57030;DHT22;42920;45.306;20.448;2023-02-21T13:26:23;512.90;1228.80
57030;DHT22;42920;45.306;20.448;2023-02-21T13:28:55;537.60;1280.00
57030;DHT22;42920;45.306;20.448;2023-02-21T13:31:23;537.60;1280.00
57030;DHT22;42920;45.306;20.448;2023-02-21T13:33:50;512.90;1228.80
57030;DHT22;42920;45.306;20.448;2023-02-21T13:41:27;512.80;1254.40
57030;DHT22;42920;45.306;20.448;2023-02-21T13:43:53;512.90;1254.40
57030;DHT22;42920;45.306;20.448;2023-02-21T13:51:48;512.60;1228.80
57030;DHT22;42920;45.306;20.448;2023-02-21T13:54:20;512.70;1254.40
57030;DHT22;42920;45.306;20.448;2023-02-21T13:56:47;512.60;1254.40
57030;DHT22;42920;45.306;20.448;2023-02-21T14:01:48;512.40;1280.00
57030;DHT22;42920;45.306;20.448;2023-02-21T14:06:58;512.20;1280.00
57030;DHT22;42920;45.306;20.448;2023-02-21T14:09:24;512.20;1280.00
57030;DHT22;42920;45.306;20.448;2023-02-21T14:11:50;512.10;1305.60
57030;DHT22;42920;45.306;20.448;2023-02-21T14:14:21;512.00;1305.60
57030;DHT22;42920;45.306;20.448;2023-02-21T14:16:49;487.30;1280.00
57030;DHT22;42920;45.306;20.448;2023-02-21T14:19:25;487.10;1305.60
57030;DHT22;42920;45.306;20.448;2023-02-21T14:24:36;486.90;1331.20
57030;DHT22;42920;45.306;20.448;2023-02-21T14:27:04;486.80;1331.20
57030;DHT22;42920;45.306;20.448;2023-02-21T14:32:24;486.70;1356.80
57030;DHT22;42920;45.306;20.448;2023-02-21T14:34:52;486.70;1356.80
57030;DHT22;42920;45.306;20.448;2023-02-21T14:37:32;486.70;1356.80
57030;DHT22;42920;45.306;20.448;2023-02-21T15:03:50;486.50;1408.00
57030;DHT22;42920;45.306;20.448;2023-02-21T15:06:19;486.40;1408.00
57030;DHT22;42920;45.306;20.448;2023-02-21T15:08:46;486.40;1408.00
57030;DHT22;42920;45.306;20.448;2023-02-21T15:13:40;461.70;1433.60
57030;DHT22;42920;45.306;20.448;2023-02-21T15:16:07;461.70;1433.60
57030;DHT22;42920;45.306;20.448;2023-02-21T15:18:36;461.70;1433.60
57030;DHT22;42920;45.306;20.448;2023-02-21T15:23:28;461.70;1433.60
57030;DHT22;42920;45.306;20.448;2023-02-21T15:25:57;461.70;1433.60
57030;DHT22;42920;45.306;20.448;2023-02-21T15:28:27;461.60;1433.60
57030;DHT22;42920;45.306;20.448;2023-02-21T15:33:27;461.60;1433.60
57030;DHT22;42920;45.306;20.448;2023-02-21T15:35:55;461.50;1433.60
57030;DHT22;42920;45.306;20.448;2023-02-21T15:41:00;461.40;1459.20
57030;DHT22;42920;45.306;20.448;2023-02-21T15:43:31;461.40;1459.20
57030;DHT22;42920;45.306;20.448;2023-02-21T15:45:58;461.40;1484.80
57030;DHT22;42920;45.306;20.448;2023-02-21T15:48:24;461.30;1484.80
57030;DHT22;42920;45.306;20.448;2023-02-21T15:50:50;461.20;1484.80
57030;DHT22;42920;45.306;20.448;2023-02-21T15:53:18;461.20;1484.80
57030;DHT22;42920;45.306;20.448;2023-02-21T15:55:44;461.20;1510.40
57030;DHT22;42920;45.306;20.448;2023-02-21T15:58:20;461.10;1510.40
57030;DHT22;42920;45.306;20.448;2023-02-21T16:00:47;461.10;1510.40
57030;DHT22;42920;45.306;20.448;2023-02-21T16:06:43;460.80;1510.40
57030;DHT22;42920;45.306;20.448;2023-02-21T16:11:15;436.10;1510.40
57030;DHT22;42920;45.306;20.448;2023-02-21T16:13:41;436.00;1510.40
57030;DHT22;42920;45.306;20.448;2023-02-21T16:16:07;435.90;1536.00
57030;DHT22;42920;45.306;20.448;2023-02-21T16:18:32;435.80;1536.00
57030;DHT22;42920;45.306;20.448;2023-02-21T16:20:59;435.70;1561.60
57030;DHT22;42920;45.306;20.448;2023-02-21T16:23:30;435.50;1587.20
57030;DHT22;42920;45.306;20.448;2023-02-21T16:28:31;435.30;1638.40
57030;DHT22;42920;45.306;20.448;2023-02-21T16:30:58;435.20;1664.00
57030;DHT22;42920;45.306;20.448;2023-02-21T16:33:25;410.50;1689.60
57030;DHT22;42920;45.306;20.448;2023-02-21T16:35:51;410.40;1689.60
57030;DHT22;42920;45.306;20.448;2023-02-21T16:38:17;410.30;1715.20
57030;DHT22;42920;45.306;20.448;2023-02-21T16:40:43;410.30;1715.20
57030;DHT22;42920;45.306;20.448;2023-02-21T16:43:14;410.20;1740.80
57030;DHT22;42920;45.306;20.448;2023-02-21T16:45:40;410.10;1740.80
57030;DHT22;42920;45.306;20.448;2023-02-21T16:48:09;410.00;1766.40
57030;DHT22;42920;45.306;20.448;2023-02-21T16:50:38;410.00;1766.40
57030;DHT22;42920;45.306;20.448;2023-02-21T16:53:04;410.00;1766.40
57030;DHT22;42920;45.306;20.448;2023-02-21T16:55:29;409.90;1766.40
57030;DHT22;42920;45.306;20.448;2023-02-21T16:57:59;409.90;1766.40
57030;DHT22;42920;45.306;20.448;2023-02-21T17:00:26;409.90;1766.40
57030;DHT22;42920;45.306;20.448;2023-02-21T17:02:51;409.80;1766.40
57030;DHT22;42920;45.306;20.448;2023-02-21T17:05:18;409.70;1792.00
57030;DHT22;42920;45.306;20.448;2023-02-21T17:07:45;409.70;1792.00
57030;DHT22;42920;45.306;20.448;2023-02-21T17:10:11;409.60;1792.00
57030;DHT22;42920;45.306;20.448;2023-02-21T17:12:37;384.90;1792.00
57030;DHT22;42920;45.306;20.448;2023-02-21T17:15:03;384.90;1792.00
57030;DHT22;42920;45.306;20.448;2023-02-21T17:17:28;384.80;1792.00
57030;DHT22;42920;45.306;20.448;2023-02-21T17:19:54;384.70;1792.00
57030;DHT22;42920;45.306;20.448;2023-02-21T17:22:20;384.70;1792.00
57030;DHT22;42920;45.306;20.448;2023-02-21T17:24:45;384.70;1792.00
57030;DHT22;42920;45.306;20.448;2023-02-21T17:27:11;384.70;1792.00
57030;DHT22;42920;45.306;20.448;2023-02-21T17:29:36;384.70;1792.00
57030;DHT22;42920;45.306;20.448;2023-02-21T17:32:02;384.70;1792.00
57030;DHT22;42920;45.306;20.448;2023-02-21T17:34:34;384.90;1766.40
57030;DHT22;42920;45.306;20.448;2023-02-21T17:37:00;384.70;1766.40
57030;DHT22;42920;45.306;20.448;2023-02-21T17:39:26;384.70;1792.00
57030;DHT22;42920;45.306;20.448;2023-02-21T17:41:52;384.70;1792.00
57030;DHT22;42920;45.306;20.448;2023-02-21T17:44:18;384.70;1792.00
57030;DHT22;42920;45.306;20.448;2023-02-21T17:46:47;384.70;1792.00
57030;DHT22;42920;45.306;20.448;2023-02-21T17:49:15;384.60;1792.00
57030;DHT22;42920;45.306;20.448;2023-02-21T17:51:40;384.60;1792.00